Bronx, NY (10458)

1:43 PM EST on February 19, 2017 (GMT -0500)
Allerton | | Change Station

Elev 124 ft 40.86 °N, 73.86 °W | Updated 1 minute ago

Clear
Clear
63.0 °F
Feels Like 63.0 °F
N
0.6
Wind Variable Wind from West
Gusts 1.9 mph

Today
High -- | Low -- °F
--% Chance of Precip.
Yesterday
High -- | Low -- °F
Precip. -- in
Pressure 29.80 in
Visibility 10.0 miles
Clouds Few 6500 ft
Scattered Clouds 12000 ft
Mostly Cloudy 16000 ft
Mostly Cloudy 25000 ft
Dew Point 42 °F
Humidity 46%
Rainfall Not available.
Snow Depth Not available.
6:43 AM 5:35 PM
Last Quarter, 41% visible
METAR KLGA 191751Z 30010KT 10SM FEW065 SCT120 BKN160 BKN250 18/01 A2979 RMK AO2 SLP089 T01780011 10178 20122 58005 $
Pressure 29.80 in
Visibility 10.0 miles
Clouds Few 6500 ft
Scattered Clouds 12000 ft
Mostly Cloudy 16000 ft
Mostly Cloudy 25000 ft
Dew Point 42 °F
Humidity 46%
Rainfall Not available.
Snow Depth Not available.
6:43 AM 5:35 PM
Last Quarter, 41% visible
METAR KLGA 191751Z 30010KT 10SM FEW065 SCT120 BKN160 BKN250 18/01 A2979 RMK AO2 SLP089 T01780011 10178 20122 58005 $

Get Your Daily Forecast Email!

Thanks for signing up!

Be on the lookout for a verification email in your inbox.

You'll start receiving the daily forecast at 8 AM.

×

10-Day Weather Forecast

Almanac

Astronomy

Feb. 19, 2017 Rise Set
Actual Time
Civil Twilight
Nautical Twilight
Astronomical Twilight
Moon
Length of Visible Light
Length of Day
Tomorrow will be .
, % of the Moon is Illuminated

Today's Extremes

State Highs State Lows

Community

WunderPhotos

Upload Photos

1,962,540 photos uploaded!

WunderBlog® & News

Nearby

Air Quality

  Air Quality AQ Index Pollutant
Not available.

Snow Depth

Station Depth Elevation

Earthquake Activity

City Distance Mag. Time & Date
Minimum magnitude displayed is 2.5.

Coastal Water Temperatures

Place Temperature

Stations

Nearby Weather Stations

Station Location Temp. Windchill Dew Point Humidity Wind Precip. Elev Updated Type
                   

Watches & Warnings

There are currently no watches in effect.